4XHLK LLIB-LLHZ

Flight info

Callsign 4XHLK
Flight time N/A
Altitude 1000
Route CVFR
Aircraft TL20/L-S/C

Departure

Time 2026-05-01 10:59
Airport Rosh Pina Airport (LLIB)

Arrival

Time N/A
Airport Herzliya Airport (LLHZ)
Time Latitude Longitude Altitude Speed Heading
2026-05-01 10:53 32.97803 35.57283 876 ft 0 kts 130°
2026-05-01 10:56 32.97802 35.57284 876 ft 2 kts 130°
2026-05-01 10:57 32.97794 35.57307 873 ft 1 kts 61°
2026-05-01 10:57 32.97801 35.57319 873 ft 1 kts 76°
2026-05-01 10:57 32.97801 35.57321 873 ft 0 kts 52°
2026-05-01 10:57 32.97802 35.57323 873 ft 0 kts 57°
2026-05-01 10:58 32.97828 35.57358 886 ft 6 kts 36°
2026-05-01 10:58 32.97832 35.57347 886 ft 8 kts
2026-05-01 10:58 32.97994 35.57255 888 ft 59 kts 332°
2026-05-01 10:59 32.98456 35.56954 1026 ft 86 kts 330°
2026-05-01 10:59 32.98978 35.56666 1285 ft 74 kts 349°
2026-05-01 10:59 32.99085 35.57192 1575 ft 94 kts 139°
2026-05-01 10:59 32.98502 35.57674 1692 ft 101 kts 168°
2026-05-01 11:00 32.97833 35.57719 1713 ft 91 kts 189°
2026-05-01 11:00 32.97206 35.57664 1694 ft 91 kts 189°
2026-05-01 11:00 32.96596 35.57489 1703 ft 88 kts 202°
2026-05-01 11:00 32.95998 35.57236 1631 ft 95 kts 201°
2026-05-01 11:01 32.95434 35.56959 1742 ft 85 kts 206°
2026-05-01 11:01 32.94882 35.56681 1782 ft 84 kts 206°
2026-05-01 11:01 32.94341 35.56429 1791 ft 88 kts 204°
2026-05-01 11:01 32.93775 35.56169 1778 ft 88 kts 203°
2026-05-01 11:02 32.93171 35.55918 1612 ft 95 kts 200°
2026-05-01 11:02 32.92582 35.55689 1586 ft 85 kts 200°
2026-05-01 11:02 32.92005 35.55460 1481 ft 85 kts 200°
2026-05-01 11:02 32.91444 35.55230 1537 ft 85 kts 202°
2026-05-01 11:03 32.91109 35.55086 1559 ft 85 kts 202°
2026-05-01 11:03 32.90654 35.54891 1675 ft 79 kts 201°
2026-05-01 11:03 32.90145 35.54688 1822 ft 79 kts 201°
2026-05-01 11:03 32.89566 35.54460 1753 ft 93 kts 200°
2026-05-01 11:04 32.88971 35.54220 1784 ft 89 kts 202°
2026-05-01 11:04 32.88391 35.53984 1831 ft 89 kts 201°
2026-05-01 11:04 32.87797 35.53735 1807 ft 91 kts 202°
2026-05-01 11:04 32.87214 35.53472 1754 ft 87 kts 204°
2026-05-01 11:05 32.86631 35.53411 1783 ft 87 kts 163°
2026-05-01 11:05 32.86233 35.53959 1742 ft 90 kts 111°
2026-05-01 11:05 32.86047 35.54636 1881 ft 83 kts 108°
2026-05-01 11:05 32.85782 35.55316 1915 ft 97 kts 125°
2026-05-01 11:06 32.85389 35.55967 1947 ft 105 kts 128°
2026-05-01 11:06 32.84919 35.56720 1707 ft 115 kts 128°
2026-05-01 11:06 32.84469 35.57438 1480 ft 108 kts 128°
2026-05-01 11:07 32.83633 35.58672 1447 ft 87 kts 139°
2026-05-01 11:07 32.83181 35.59140 1516 ft 86 kts 140°
2026-05-01 11:07 32.82726 35.59613 1588 ft 86 kts 143°
2026-05-01 11:07 32.82248 35.60057 1641 ft 87 kts 143°
2026-05-01 11:08 32.81772 35.60482 1732 ft 84 kts 146°
2026-05-01 11:08 32.81289 35.60898 1772 ft 87 kts 146°
2026-05-01 11:08 32.80060 35.60995 1543 ft 91 kts 184°
2026-05-01 11:09 32.79408 35.60973 1389 ft 95 kts 184°
2026-05-01 11:09 32.78764 35.60953 1357 ft 89 kts 184°
2026-05-01 11:09 32.78151 35.60934 1351 ft 88 kts 184°
2026-05-01 11:10 32.76968 35.60646 1302 ft 90 kts 204°
2026-05-01 11:10 32.76378 35.60470 1284 ft 91 kts 175°
2026-05-01 11:10 32.76203 35.61079 933 ft 112 kts 39°
2026-05-01 11:10 32.76927 35.61204 771 ft 89 kts 356°
2026-05-01 11:11 32.77508 35.61168 897 ft 83 kts 351°
2026-05-01 11:11 32.78107 35.61087 940 ft 82 kts 349°
2026-05-01 11:11 32.78717 35.60978 853 ft 99 kts 349°
2026-05-01 11:11 32.79332 35.60671 914 ft 98 kts 315°
2026-05-01 11:12 32.79619 35.60264 927 ft 93 kts 306°
2026-05-01 11:12 32.79974 35.59658 1046 ft 88 kts 302°
2026-05-01 11:12 32.80320 35.59025 1055 ft 100 kts 302°
2026-05-01 11:12 32.80851 35.58054 938 ft 105 kts 300°
2026-05-01 11:13 32.81093 35.57580 1006 ft 95 kts 298°
2026-05-01 11:13 32.81398 35.56916 1109 ft 90 kts 296°
2026-05-01 11:13 32.81672 35.56283 1262 ft 87 kts 296°
2026-05-01 11:13 32.81923 35.55652 1419 ft 86 kts 294°
2026-05-01 11:14 32.82139 35.55003 1520 ft 82 kts 291°
2026-05-01 11:14 32.82368 35.54359 1484 ft 88 kts 293°
2026-05-01 11:14 32.82606 35.53709 1520 ft 84 kts 292°
2026-05-01 11:14 32.82848 35.53054 1483 ft 88 kts 294°
2026-05-01 11:15 32.83109 35.52401 1467 ft 87 kts 295°
2026-05-01 11:15 32.83371 35.51752 1439 ft 89 kts 294°
2026-05-01 11:15 32.83655 35.51062 1357 ft 97 kts 296°
2026-05-01 11:15 32.83964 35.50340 1439 ft 98 kts 295°
2026-05-01 11:16 32.84253 35.49611 1506 ft 94 kts 294°
2026-05-01 11:16 32.84523 35.48894 1487 ft 100 kts 293°
2026-05-01 11:16 32.84809 35.48146 1485 ft 96 kts 294°
2026-05-01 11:16 32.85070 35.47435 1553 ft 92 kts 292°
2026-05-01 11:17 32.85312 35.46727 1606 ft 95 kts 289°
2026-05-01 11:17 32.85548 35.45961 1550 ft 102 kts 288°
2026-05-01 11:17 32.85714 35.45195 1605 ft 92 kts 276°
2026-05-01 11:17 32.85772 35.44399 1499 ft 106 kts 262°
2026-05-01 11:18 32.85471 35.43645 1445 ft 86 kts 241°
2026-05-01 11:18 32.85170 35.42986 1457 ft 98 kts 249°
2026-05-01 11:18 32.84911 35.42243 1477 ft 96 kts 247°
2026-05-01 11:18 32.84645 35.41517 1512 ft 97 kts 244°
2026-05-01 11:19 32.84334 35.40815 1545 ft 96 kts 243°
2026-05-01 11:19 32.84043 35.40127 1526 ft 88 kts 245°
2026-05-01 11:19 32.83767 35.39436 1345 ft 94 kts 239°
2026-05-01 11:19 32.83420 35.38766 882 ft 99 kts 260°
2026-05-01 11:20 32.83208 35.37960 536 ft 99 kts 247°
2026-05-01 11:20 32.82977 35.37322 510 ft 72 kts 247°
2026-05-01 11:20 32.82819 35.36868 488 ft 51 kts 247°
2026-05-01 11:20 32.82688 35.36470 500 ft 72 kts 250°
2026-05-01 11:21 32.82506 35.35767 659 ft 98 kts 255°
2026-05-01 11:21 32.82315 35.34956 857 ft 105 kts 253°
2026-05-01 11:21 32.82082 35.34139 1137 ft 102 kts 251°
2026-05-01 11:21 32.81812 35.33348 821 ft 108 kts 241°
2026-05-01 11:22 32.81734 35.32524 521 ft 95 kts 276°
2026-05-01 11:22 32.81824 35.31694 543 ft 105 kts 279°
2026-05-01 11:22 32.81909 35.30850 681 ft 101 kts 279°
2026-05-01 11:22 32.82139 35.30059 717 ft 108 kts 287°
2026-05-01 11:23 32.81759 35.29888 751 ft 121 kts 110°
2026-05-01 11:23 32.81708 35.30916 646 ft 125 kts 78°
2026-05-01 11:23 32.81637 35.31814 592 ft 97 kts 101°
2026-05-01 11:23 32.81557 35.32483 522 ft 66 kts 97°
2026-05-01 11:24 32.81562 35.32934 484 ft 44 kts 86°
2026-05-01 11:24 32.81571 35.33037 481 ft 0 kts 78°
2026-05-01 11:42 32.81576 35.33064 484 ft 27 kts 78°
2026-05-01 11:42 32.81751 35.33553 541 ft 91 kts 33°
2026-05-01 11:42 32.82081 35.33105 583 ft 112 kts 259°
2026-05-01 11:43 32.81766 35.32232 579 ft 114 kts 255°
2026-05-01 11:43 32.81413 35.31460 523 ft 120 kts 211°
2026-05-01 11:43 32.80848 35.30833 638 ft 110 kts 276°
2026-05-01 11:44 32.81379 35.29267 1050 ft 86 kts 294°
2026-05-01 11:44 32.81700 35.28604 1188 ft 87 kts 306°
2026-05-01 11:44 32.81992 35.28041 1524 ft 75 kts 306°
2026-05-01 11:44 32.82284 35.27486 1699 ft 87 kts 300°
2026-05-01 11:45 32.82598 35.26813 1660 ft 100 kts 283°
2026-05-01 11:45 32.82307 35.26128 1638 ft 102 kts 215°
2026-05-01 11:45 32.81804 35.26530 1447 ft 114 kts 81°
2026-05-01 11:45 32.82190 35.27183 1693 ft 91 kts 65°
2026-05-01 11:46 32.82183 35.27984 1527 ft 104 kts 116°
2026-05-01 11:46 32.81665 35.28575 1095 ft 102 kts 155°
2026-05-01 11:46 32.81101 35.28775 694 ft 68 kts 164°
2026-05-01 11:46 32.80877 35.29179 532 ft 53 kts 111°
2026-05-01 11:47 32.80762 35.29544 499 ft 39 kts 110°
2026-05-01 11:47 32.80819 35.30034 572 ft 85 kts 31°
2026-05-01 11:47 32.81353 35.29793 806 ft 89 kts 321°
2026-05-01 11:47 32.81726 35.29191 1054 ft 98 kts 283°
2026-05-01 11:48 32.81943 35.28462 1355 ft 91 kts 304°
2026-05-01 11:48 32.82229 35.27767 1594 ft 99 kts 294°
2026-05-01 11:48 32.82616 35.27024 1662 ft 114 kts 303°
2026-05-01 11:48 32.82771 35.26102 1640 ft 116 kts 278°
2026-05-01 11:49 32.83097 35.25258 1614 ft 109 kts 296°
2026-05-01 11:49 32.83356 35.24419 1520 ft 107 kts 265°
2026-05-01 11:49 32.83198 35.23602 1626 ft 97 kts 258°
2026-05-01 11:49 32.83076 35.22870 1653 ft 86 kts 259°
2026-05-01 11:50 32.82975 35.22163 1665 ft 86 kts 261°
2026-05-01 11:50 32.82894 35.21488 1708 ft 80 kts 261°
2026-05-01 11:50 32.82779 35.20841 1765 ft 80 kts 258°
2026-05-01 11:50 32.82667 35.20178 1739 ft 86 kts 257°
2026-05-01 11:51 32.82517 35.19495 1713 ft 85 kts 255°
2026-05-01 11:51 32.82356 35.18828 1723 ft 83 kts 254°
2026-05-01 11:51 32.82250 35.18146 1700 ft 84 kts 272°
2026-05-01 11:51 32.82301 35.17451 1683 ft 88 kts 272°
2026-05-01 11:52 32.82265 35.16716 1519 ft 93 kts 263°
2026-05-01 11:52 32.82196 35.15949 1390 ft 91 kts 264°
2026-05-01 11:52 32.82120 35.15209 1482 ft 87 kts 264°
2026-05-01 11:52 32.82043 35.14485 1501 ft 88 kts 261°
2026-05-01 11:53 32.81944 35.13791 1575 ft 83 kts 261°
2026-05-01 11:53 32.81858 35.13094 1556 ft 89 kts 263°
2026-05-01 11:53 32.81788 35.12343 1482 ft 92 kts 264°
2026-05-01 11:53 32.81733 35.11575 1416 ft 94 kts 265°
2026-05-01 11:54 32.81685 35.10820 1386 ft 93 kts 266°
2026-05-01 11:54 32.81647 35.10058 1270 ft 98 kts 266°
2026-05-01 11:54 32.81607 35.09237 1186 ft 102 kts 266°
2026-05-01 11:54 32.81559 35.08375 1219 ft 105 kts 265°
2026-05-01 11:55 32.81452 35.07514 1176 ft 104 kts 256°
2026-05-01 11:55 32.81229 35.07037 1056 ft 99 kts 214°
2026-05-01 11:55 32.80580 35.06982 977 ft 97 kts 167°
2026-05-01 11:55 32.79723 35.07306 947 ft 100 kts 166°
2026-05-01 11:56 32.79026 35.07425 932 ft 101 kts 199°
2026-05-01 11:56 32.78625 35.07129 896 ft 103 kts 219°
2026-05-01 11:56 32.78106 35.06564 846 ft 102 kts 227°
2026-05-01 11:56 32.77750 35.05974 874 ft 84 kts 275°
2026-05-01 11:57 32.78190 35.05552 634 ft 89 kts 337°
2026-05-01 11:57 32.78796 35.05307 501 ft 91 kts 339°
2026-05-01 11:57 32.79362 35.05076 458 ft 87 kts 339°
2026-05-01 11:57 32.79790 35.04901 212 ft 59 kts 340°
2026-05-01 11:58 32.80108 35.04774 97 ft 41 kts 340°
2026-05-01 11:58 32.80409 35.04639 68 ft 48 kts 339°
2026-05-01 11:58 32.80923 35.04414 22 ft 28 kts 339°
2026-05-01 11:59 32.81075 35.04344 21 ft 18 kts 339°
2026-05-01 11:59 32.81165 35.04281 22 ft 4 kts 269°
2026-05-01 11:59 32.81156 35.04227 21 ft 7 kts 273°
2026-05-01 12:00 32.81280 35.04168 20 ft 4 kts 90°
2026-05-01 12:00 32.81287 35.04180 21 ft 2 kts 301°
2026-05-01 12:00 32.81287 35.04178 21 ft 0 kts 264°